Terminal Aerodrome Forecast
Issued by NWS Kansas City/Pleasant Hill, MO

Home | Current Version | Previous Version | Text Only | Print | Product List | Glossary On
Versions: 1 2 3 4 5 6 7 8 9 10 11 12 13 14 15 16 17
000
FTUS43 KEAX 230903 AAA
TAFMCI
TAF AMD
KMCI 230903Z 2309/2406 VRB05KT 2SM BR BKN010
      TEMPO 2309/2312 1/2SM FG BKN003
     FM231200 32008KT P6SM VCSH OVC035
     FM231500 33009KT P6SM OVC040
     FM231800 32012KT P6SM VCTS OVC050CB
     FM240000 31007KT P6SM OVC040=

USA.gov is the U.S. government's official web portal to all federal, state and local government web resources and services.